Disclaimer

Please do not use the information listed here in-flight or in-navigation, as they are not provided to us by the airports but are provided by volunteers, so they might be outdated.

Search


Regions


Airport information page

No radio frequency information is available.

Airport informations:
Latitude: 24° 32' 38.53" N
Longitude: 118° 07' 39.86" E
Elevation: 59 feet - 18 meters
Operating hours: Remarks
Operating agency: Civil government, landing fees and diplomatic clearance may be required
Timezone: UTC+8
Fuel: Jet fuel avaiable but type is unknown.

100/130 MIL Spec, low lead, aviation gasoline (BLUE)

Runway information:
05/23 - 11155 x 148 feet< - >3400 x 45 meters

Recent METARs:
ZSAM 180600Z VRB01MPS 8000 SCT014 OVC050 23/20 Q1015 BECMG TL0750 BKN010 OVC030
ZSAM 180600Z VRB01MPS 8000 SCT014 OVC050 23/20 Q1015 BECMG TL0750 BKN010 OVC030
ZSAM 180700Z VRB01MPS 9000 SCT014 BKN050 23/20 Q1015 BECMG TL0850 BKN010 BKN033

Airport on the map: